Time;durP1;ratioP1;P1;durP2;ratioP2;P2;SDS_P1;SDS_P2;PMS_P1;PMS_P2;Temp;Humidity;BMP_temperature;BMP_pressure;BME280_temperature;BME280_humidity;BME280_pressure;Samples;Min_cycle;Max_cycle;Signal;HPM_P1;HPM_P2
2023/03/13 00:00:51;;;;;;;23.42;4.22;;;9.00;99.90;;;;;;5106753;28;20501;-81
2023/03/13 00:03:17;;;;;;;22.77;3.63;;;9.00;99.90;;;;;;5105139;28;20074;-80
2023/03/13 00:05:42;;;;;;;33.83;4.18;;;8.90;99.90;;;;;;5074889;27;20475;-80
2023/03/13 00:08:08;;;;;;;23.23;3.83;;;9.70;99.90;;;;;;5058337;27;20081;-80
2023/03/13 00:10:38;;;;;;;30.58;4.82;;;8.90;99.90;;;;;;5092006;27;20091;-80
2023/03/13 00:13:04;;;;;;;36.28;4.65;;;8.90;99.90;;;;;;5108892;27;20054;-80
2023/03/13 00:15:31;;;;;;;39.50;5.63;;;10.00;99.90;;;;;;5091348;27;20058;-81
2023/03/13 00:17:56;;;;;;;28.67;5.03;;;8.90;99.90;;;;;;5109353;27;20509;-81
2023/03/13 00:20:22;;;;;;;24.08;4.30;;;8.90;99.90;;;;;;5073921;27;20039;-80
2023/03/13 00:22:48;;;;;;;31.77;3.85;;;8.90;99.90;;;;;;5075859;27;20423;-81
2023/03/13 00:25:13;;;;;;;25.33;4.57;;;8.90;99.90;;;;;;5090859;27;20509;-80
2023/03/13 00:27:39;;;;;;;30.42;4.82;;;8.90;99.90;;;;;;5091997;27;20057;-80
2023/03/13 00:30:05;;;;;;;37.80;6.25;;;8.90;99.90;;;;;;5091487;27;20057;-80
2023/03/13 00:32:31;;;;;;;33.58;5.32;;;8.90;99.90;;;;;;5090987;27;20086;-80
2023/03/13 00:34:57;;;;;;;25.40;5.43;;;8.90;99.90;;;;;;5108944;27;20082;-80
2023/03/13 00:37:23;;;;;;;31.00;4.70;;;9.10;99.90;;;;;;5090740;27;20062;-81
2023/03/13 00:39:48;;;;;;;31.38;4.43;;;8.90;99.90;;;;;;5091935;27;20096;-81
2023/03/13 00:42:14;;;;;;;31.38;6.95;;;8.90;99.90;;;;;;5073673;27;20122;-81
2023/03/13 00:44:40;;;;;;;30.13;5.88;;;8.80;99.90;;;;;;5091186;27;20039;-81
2023/03/13 00:47:06;;;;;;;24.67;4.68;;;9.00;99.90;;;;;;5091238;27;20051;-82
2023/03/13 00:49:32;;;;;;;31.80;4.07;;;8.80;99.90;;;;;;5057354;27;20046;-81
2023/03/13 00:51:58;;;;;;;41.20;5.45;;;8.80;99.90;;;;;;5109373;27;20048;-81
2023/03/13 00:54:23;;;;;;;33.35;5.80;;;8.80;99.90;;;;;;5107330;27;20401;-81
2023/03/13 00:56:49;;;;;;;24.88;5.32;;;8.80;99.90;;;;;;5108424;27;20047;-81
2023/03/13 00:59:15;;;;;;;36.25;5.05;;;8.80;99.90;;;;;;5106991;27;20043;-82
2023/03/13 01:01:41;;;;;;;35.60;4.70;;;9.10;99.90;;;;;;5108320;27;20062;-81
2023/03/13 01:04:10;;;;;;;27.55;5.85;;;8.80;99.90;;;;;;5108062;27;20435;-81
2023/03/13 01:06:39;;;;;;;27.65;4.97;;;8.80;99.90;;;;;;5107231;27;20183;-81
2023/03/13 01:09:06;;;;;;;35.63;5.28;;;9.90;99.90;;;;;;5090619;27;20047;-81
2023/03/13 01:11:35;;;;;;;35.92;5.50;;;8.80;99.90;;;;;;5089922;27;20072;-81
2023/03/13 01:14:04;;;;;;;39.70;5.72;;;9.50;99.90;;;;;;5108564;27;20241;-81
2023/03/13 01:16:32;;;;;;;30.23;5.85;;;9.50;99.90;;;;;;5107154;27;20046;-81
2023/03/13 01:19:00;;;;;;;29.65;5.38;;;9.20;99.90;;;;;;5107797;27;20039;-81
2023/03/13 01:21:27;;;;;;;35.15;6.07;;;8.80;99.90;;;;;;5108083;27;20042;-81
2023/03/13 01:23:54;;;;;;;45.47;5.47;;;8.80;99.90;;;;;;5089856;27;20089;-81
2023/03/13 01:26:21;;;;;;;28.48;5.18;;;8.80;99.90;;;;;;5107903;27;20039;-80
2023/03/13 01:28:47;;;;;;;29.45;6.93;;;8.80;99.90;;;;;;5106904;27;20043;-81
2023/03/13 01:31:16;;;;;;;25.13;4.85;;;9.90;99.90;;;;;;5091385;27;20089;-81
2023/03/13 01:33:42;;;;;;;27.65;5.65;;;9.60;99.90;;;;;;5090116;27;20045;-81
2023/03/13 01:36:08;;;;;;;30.45;4.45;;;9.90;99.90;;;;;;5090262;27;20044;-81
2023/03/13 01:38:35;;;;;;;34.40;6.20;;;8.80;99.90;;;;;;5126054;27;20049;-80
2023/03/13 01:41:01;;;;;;;29.90;6.18;;;9.50;99.90;;;;;;5107191;27;20122;-81
2023/03/13 01:43:29;;;;;;;42.03;5.85;;;8.80;99.90;;;;;;5126690;27;20068;-82
2023/03/13 01:45:59;;;;;;;32.13;5.28;;;8.80;99.90;;;;;;5106585;27;20050;-81
2023/03/13 01:48:34;;;;;;;31.38;5.03;;;9.20;99.90;;;;;;5091082;27;20035;-81
2023/03/13 01:51:03;;;;;;;34.72;5.10;;;8.80;99.90;;;;;;5089875;27;20166;-81
2023/03/13 01:53:32;;;;;;;23.42;5.05;;;8.80;99.90;;;;;;5106819;28;20039;-81
2023/03/13 01:56:01;;;;;;;29.38;4.93;;;8.80;99.90;;;;;;5090812;28;20085;-81
2023/03/13 01:58:29;;;;;;;28.08;4.70;;;8.80;99.90;;;;;;5106683;28;20140;-81
2023/03/13 02:00:54;;;;;;;27.15;5.15;;;8.80;99.90;;;;;;5090425;28;20087;-81
2023/03/13 02:03:22;;;;;;;27.15;4.45;;;8.80;99.90;;;;;;5105812;28;20035;-81
2023/03/13 02:05:49;;;;;;;24.15;4.32;;;8.80;99.90;;;;;;5107222;28;20114;-81
2023/03/13 02:08:24;;;;;;;23.38;4.57;;;9.50;99.90;;;;;;5106661;28;20502;-81
2023/03/13 02:11:17;;;;;;;29.55;5.15;;;9.40;99.90;;;;;;5089224;28;20074;-81
2023/03/13 02:13:43;;;;;;;27.73;4.22;;;8.80;99.90;;;;;;5090518;28;20078;-81
2023/03/13 02:16:09;;;;;;;32.47;5.55;;;8.80;99.90;;;;;;5106349;28;20043;-81
2023/03/13 02:18:37;;;;;;;28.15;5.28;;;8.80;99.90;;;;;;5072935;27;20043;-81
2023/03/13 02:21:33;;;;;;;38.65;6.03;;;8.80;99.90;;;;;;5110864;27;20103;-81
2023/03/13 02:24:09;;;;;;;21.13;3.70;;;8.80;99.90;;;;;;5116105;27;20134;-81
2023/03/13 02:26:35;;;;;;;30.95;6.30;;;8.80;99.90;;;;;;5111527;27;20043;-81
2023/03/13 02:29:01;;;;;;;30.25;4.82;;;9.50;99.90;;;;;;5093591;27;20049;-80
2023/03/13 02:31:27;;;;;;;26.92;4.70;;;9.90;99.90;;;;;;5094768;27;20046;-80
2023/03/13 02:33:54;;;;;;;25.27;4.82;;;8.70;99.90;;;;;;5076684;27;20043;-81
2023/03/13 02:36:21;;;;;;;21.42;4.65;;;9.20;99.90;;;;;;5093726;27;20517;-81
2023/03/13 02:38:58;;;;;;;24.63;4.50;;;8.80;99.90;;;;;;5094249;27;20061;-81
2023/03/13 02:41:25;;;;;;;19.50;4.28;;;8.80;99.90;;;;;;5093673;27;20050;-81
2023/03/13 02:43:51;;;;;;;19.30;4.57;;;8.70;99.90;;;;;;5111803;27;20042;-80
2023/03/13 02:46:19;;;;;;;21.58;4.63;;;8.80;99.90;;;;;;5093042;27;20046;-80
2023/03/13 02:48:54;;;;;;;21.75;3.63;;;8.80;99.90;;;;;;5093984;27;20043;-80
2023/03/13 02:51:22;;;;;;;19.30;3.53;;;8.90;99.90;;;;;;5094108;27;20051;-80
2023/03/13 02:53:49;;;;;;;16.42;3.60;;;8.80;99.90;;;;;;5110107;27;20051;-81
2023/03/13 02:56:18;;;;;;;18.23;3.80;;;8.80;99.90;;;;;;5094716;27;20043;-81
2023/03/13 02:58:44;;;;;;;17.30;4.03;;;8.30;99.90;;;;;;5092271;27;20035;-80
2023/03/13 03:01:10;;;;;;;15.88;3.42;;;9.30;99.90;;;;;;5094150;27;20047;-80
2023/03/13 03:03:36;;;;;;;14.35;3.47;;;8.90;99.90;;;;;;5109693;27;20078;-80
2023/03/13 03:06:03;;;;;;;10.80;2.85;;;8.90;99.90;;;;;;5110391;27;20120;-80
2023/03/13 03:08:29;;;;;;;8.77;2.97;;;8.90;99.90;;;;;;5077241;27;20196;-81
2023/03/13 03:10:55;;;;;;;13.98;3.15;;;8.90;99.90;;;;;;5076242;27;20440;-80
2023/03/13 03:13:20;;;;;;;17.42;3.38;;;8.90;99.90;;;;;;5093958;27;20047;-81
2023/03/13 03:15:46;;;;;;;10.52;2.90;;;9.00;99.90;;;;;;5058606;27;20058;-80
2023/03/13 03:18:12;;;;;;;13.77;3.88;;;9.00;99.90;;;;;;5110657;27;20130;-81
2023/03/13 03:20:37;;;;;;;10.57;2.55;;;9.30;99.90;;;;;;5075675;27;20039;-81
2023/03/13 03:23:03;;;;;;;12.50;2.88;;;9.10;99.90;;;;;;5076429;27;20047;-81
2023/03/13 03:25:29;;;;;;;10.48;2.65;;;9.00;99.90;;;;;;5109868;27;20131;-82
2023/03/13 03:27:54;;;;;;;5.55;1.98;;;9.60;99.90;;;;;;5076001;27;20104;-81
2023/03/13 03:30:20;;;;;;;9.85;1.95;;;9.10;99.90;;;;;;5110160;28;20032;-81
2023/03/13 03:32:46;;;;;;;6.75;1.88;;;9.40;99.90;;;;;;5091797;27;20066;-82
2023/03/13 03:35:12;;;;;;;12.05;2.03;;;9.10;99.90;;;;;;5076350;27;20126;-81
2023/03/13 03:37:37;;;;;;;6.85;1.60;;;10.00;99.90;;;;;;5092005;27;20038;-82
2023/03/13 03:40:05;;;;;;;7.10;1.67;;;9.10;99.90;;;;;;5109851;27;20039;-81
2023/03/13 03:42:31;;;;;;;3.83;1.75;;;9.10;99.90;;;;;;5109638;27;20114;-81
2023/03/13 03:44:57;;;;;;;8.07;1.98;;;9.20;99.90;;;;;;5075846;27;20043;-81
2023/03/13 03:47:23;;;;;;;5.30;1.85;;;9.40;99.90;;;;;;5092925;27;20519;-81
2023/03/13 03:49:48;;;;;;;7.43;2.15;;;9.20;99.90;;;;;;5091810;27;20039;-81
2023/03/13 03:52:14;;;;;;;6.00;1.55;;;9.20;99.90;;;;;;5110259;27;20049;-81
2023/03/13 03:54:40;;;;;;;5.43;1.92;;;9.20;99.90;;;;;;5091511;27;20500;-81
2023/03/13 03:57:05;;;;;;;5.20;1.65;;;9.20;99.90;;;;;;5059048;27;20116;-81
2023/03/13 03:59:31;;;;;;;5.45;2.05;;;9.20;99.90;;;;;;5075333;27;20031;-81
2023/03/13 04:01:57;;;;;;;8.88;2.60;;;9.30;99.90;;;;;;5075262;27;20043;-81
2023/03/13 04:04:22;;;;;;;4.75;1.70;;;9.30;99.90;;;;;;5059389;27;20157;-81
2023/03/13 04:06:48;;;;;;;5.53;1.90;;;9.30;99.90;;;;;;5074336;27;20047;-81
2023/03/13 04:09:14;;;;;;;4.10;1.50;;;9.30;99.90;;;;;;5093187;27;20047;-81
2023/03/13 04:11:39;;;;;;;4.35;1.67;;;9.70;99.90;;;;;;5091341;27;20047;-81
2023/03/13 04:14:05;;;;;;;4.22;1.70;;;9.50;99.90;;;;;;5092877;27;20035;-79
2023/03/13 04:16:31;;;;;;;4.78;1.38;;;9.40;99.90;;;;;;5091421;27;20186;-80
2023/03/13 04:18:56;;;;;;;2.90;1.05;;;9.50;99.90;;;;;;5075371;27;20043;-80
2023/03/13 04:21:22;;;;;;;3.55;1.50;;;9.50;99.90;;;;;;5109164;27;20043;-81
2023/03/13 04:23:48;;;;;;;1.50;1.02;;;9.50;99.90;;;;;;5108559;27;20110;-81
2023/03/13 04:26:13;;;;;;;2.75;1.02;;;9.60;99.90;;;;;;5109439;27;20046;-81
2023/03/13 04:28:39;;;;;;;4.47;1.10;;;9.60;99.90;;;;;;5058308;27;20123;-81
2023/03/13 04:31:05;;;;;;;2.65;1.50;;;9.70;99.90;;;;;;5093268;27;20417;-81
2023/03/13 04:33:31;;;;;;;2.70;1.90;;;9.70;99.90;;;;;;5098601;27;20047;-81
2023/03/13 04:35:56;;;;;;;4.57;2.15;;;9.70;99.90;;;;;;5119690;27;20055;-81
2023/03/13 04:38:22;;;;;;;4.18;2.70;;;9.80;99.90;;;;;;5102941;27;20059;-80
2023/03/13 04:40:48;;;;;;;6.28;3.50;;;9.90;99.90;;;;;;5082065;27;20039;-81
2023/03/13 04:43:14;;;;;;;5.43;3.17;;;10.00;99.90;;;;;;5113317;27;20082;-81
2023/03/13 04:45:39;;;;;;;4.28;3.25;;;10.40;99.90;;;;;;5075152;27;20053;-81
2023/03/13 04:48:05;;;;;;;8.23;4.10;;;10.10;99.90;;;;;;5092708;27;20040;-81
2023/03/13 04:50:31;;;;;;;6.72;3.13;;;10.10;99.90;;;;;;5091005;27;20125;-81
2023/03/13 04:52:57;;;;;;;7.82;4.47;;;10.20;99.90;;;;;;5074643;27;20524;-80
2023/03/13 04:55:22;;;;;;;5.05;3.80;;;10.30;99.90;;;;;;5074642;27;20042;-80
2023/03/13 04:57:48;;;;;;;9.60;5.00;;;10.30;99.90;;;;;;5074695;27;20043;-80
2023/03/13 05:00:14;;;;;;;15.75;5.30;;;10.40;99.90;;;;;;5075241;27;20445;-80
2023/03/13 05:02:40;;;;;;;8.10;4.30;;;10.40;99.90;;;;;;5090652;27;20097;-80
2023/03/13 05:05:06;;;;;;;8.43;4.45;;;10.50;99.90;;;;;;5091654;27;20505;-80
2023/03/13 05:07:31;;;;;;;7.32;4.35;;;10.50;99.90;;;;;;5090044;27;20103;-80
2023/03/13 05:09:57;;;;;;;11.82;4.75;;;10.50;99.90;;;;;;5108185;27;20043;-80
2023/03/13 05:12:23;;;;;;;5.80;4.00;;;10.50;99.90;;;;;;5107822;27;20035;-80
2023/03/13 05:14:49;;;;;;;5.10;3.80;;;10.60;99.90;;;;;;5073992;27;20103;-79
2023/03/13 05:17:16;;;;;;;9.13;3.70;;;10.70;99.90;;;;;;5091294;27;20047;-80
2023/03/13 05:19:42;;;;;;;9.43;4.20;;;10.70;99.90;;;;;;5106828;27;20043;-80
2023/03/13 05:22:08;;;;;;;12.07;4.18;;;10.70;99.90;;;;;;5108279;27;20050;-79
2023/03/13 05:24:33;;;;;;;14.25;4.88;;;10.80;99.90;;;;;;5106423;27;20263;-79
2023/03/13 05:26:59;;;;;;;9.82;4.63;;;10.80;99.90;;;;;;5108838;27;20129;-79
2023/03/13 05:29:25;;;;;;;11.73;4.38;;;10.90;99.90;;;;;;5090194;27;20039;-79
2023/03/13 05:31:51;;;;;;;12.18;4.35;;;10.90;99.90;;;;;;5090544;27;20042;-80
2023/03/13 05:34:17;;;;;;;8.20;3.60;;;10.90;99.90;;;;;;5090775;27;20092;-80
2023/03/13 05:36:43;;;;;;;10.90;3.45;;;11.00;99.90;;;;;;5107092;27;20126;-80
2023/03/13 05:39:08;;;;;;;7.05;3.38;;;11.10;99.90;;;;;;5091249;27;20040;-81
2023/03/13 05:41:34;;;;;;;13.18;2.90;;;11.20;99.90;;;;;;5089535;27;20039;-80
2023/03/13 05:44:00;;;;;;;10.95;2.88;;;11.30;99.90;;;;;;5091288;27;20042;-82
2023/03/13 05:46:25;;;;;;;10.10;2.90;;;11.30;99.90;;;;;;5073466;27;20402;-80
2023/03/13 05:48:51;;;;;;;7.53;2.60;;;11.30;99.90;;;;;;5107032;27;20042;-81
2023/03/13 05:51:18;;;;;;;10.18;2.80;;;11.40;99.90;;;;;;5073696;27;20043;-79
2023/03/13 05:53:43;;;;;;;8.02;2.78;;;11.30;99.90;;;;;;5088956;28;20039;-80
2023/03/13 05:56:09;;;;;;;11.98;2.83;;;11.40;99.90;;;;;;5090833;27;20043;-79
2023/03/13 05:58:35;;;;;;;14.27;4.47;;;12.40;99.90;;;;;;5089253;28;20043;-81
2023/03/13 06:01:10;;;;;;;20.17;3.45;;;11.30;99.90;;;;;;5091068;27;20046;-80
2023/03/13 06:03:36;;;;;;;9.95;2.75;;;11.30;99.90;;;;;;5106973;28;20043;-79
2023/03/13 06:06:02;;;;;;;15.95;3.83;;;11.30;99.90;;;;;;5073052;28;20328;-79
2023/03/13 06:08:28;;;;;;;14.40;3.10;;;11.30;99.90;;;;;;5090711;28;20043;-80
2023/03/13 06:10:54;;;;;;;8.27;2.70;;;11.30;99.90;;;;;;5089511;28;20040;-80
2023/03/13 06:13:19;;;;;;;14.57;2.85;;;11.30;99.90;;;;;;5091172;28;20039;-79
2023/03/13 06:15:53;;;;;;;12.68;3.03;;;11.30;99.90;;;;;;5089457;28;20047;-79
2023/03/13 06:18:19;;;;;;;16.25;3.38;;;11.30;99.90;;;;;;5090950;28;20440;-79
2023/03/13 06:20:44;;;;;;;14.40;2.85;;;11.30;99.90;;;;;;5089224;28;20047;-78
2023/03/13 06:23:10;;;;;;;12.07;3.47;;;11.50;99.90;;;;;;5056709;28;20046;-78
2023/03/13 06:25:36;;;;;;;19.25;4.03;;;11.30;99.90;;;;;;5073742;28;20126;-80
2023/03/13 06:28:01;;;;;;;14.77;2.80;;;11.00;99.90;;;;;;5072874;28;20046;-80
2023/03/13 06:30:27;;;;;;;15.57;2.75;;;11.30;99.90;;;;;;5074093;28;20513;-79
2023/03/13 06:32:53;;;;;;;13.60;3.38;;;11.30;99.90;;;;;;5071973;28;20541;-79
2023/03/13 06:35:18;;;;;;;15.55;2.88;;;11.30;99.90;;;;;;5090722;28;20043;-80
2023/03/13 06:37:44;;;;;;;15.50;3.90;;;11.30;99.90;;;;;;5089810;28;20039;-79
2023/03/13 06:40:10;;;;;;;16.90;3.03;;;11.30;99.90;;;;;;5106965;28;20502;-83
2023/03/13 06:42:36;;;;;;;12.55;3.17;;;11.30;99.90;;;;;;5090102;28;20046;-79
2023/03/13 06:45:02;;;;;;;18.98;3.72;;;11.30;99.90;;;;;;5056238;28;20047;-79
2023/03/13 06:47:31;;;;;;;14.63;3.83;;;11.30;99.90;;;;;;5090930;28;20130;-80
2023/03/13 06:49:57;;;;;;;12.85;2.80;;;11.40;99.90;;;;;;5088810;28;20051;-80
2023/03/13 06:52:23;;;;;;;27.25;4.47;;;11.40;99.90;;;;;;5073581;28;20043;-81
2023/03/13 06:54:49;;;;;;;12.02;2.65;;;11.40;99.90;;;;;;5105890;28;20047;-80
2023/03/13 06:57:14;;;;;;;6.72;3.15;;;11.50;99.90;;;;;;5107229;28;20058;-79
2023/03/13 06:59:40;;;;;;;16.75;4.50;;;11.50;99.90;;;;;;5073253;28;20039;-79
2023/03/13 07:02:08;;;;;;;12.10;3.50;;;11.50;99.90;;;;;;5105967;28;20526;-78
2023/03/13 07:04:33;;;;;;;16.67;3.25;;;11.50;99.90;;;;;;5073786;27;20512;-78
2023/03/13 07:06:59;;;;;;;10.07;3.03;;;11.60;99.90;;;;;;5092468;27;20046;-78
2023/03/13 07:09:25;;;;;;;14.10;3.25;;;11.60;99.90;;;;;;5110934;27;20047;-78
2023/03/13 07:11:50;;;;;;;11.90;3.08;;;11.60;99.90;;;;;;5092632;27;20035;-79
2023/03/13 07:14:16;;;;;;;11.18;3.13;;;11.70;99.90;;;;;;5093492;27;20119;-79
2023/03/13 07:16:42;;;;;;;11.93;3.15;;;11.70;99.90;;;;;;5060063;27;20039;-78
2023/03/13 07:19:08;;;;;;;8.07;2.85;;;11.70;99.90;;;;;;5092378;27;20123;-78
2023/03/13 07:21:33;;;;;;;11.52;3.13;;;11.80;99.90;;;;;;5110447;27;20130;-78
2023/03/13 07:23:59;;;;;;;9.38;2.33;;;11.80;99.90;;;;;;5109115;27;20453;-78
2023/03/13 07:26:25;;;;;;;14.55;2.50;;;11.90;99.90;;;;;;5110532;27;20043;-79
2023/03/13 07:28:50;;;;;;;12.85;2.30;;;11.80;99.90;;;;;;5075317;27;20046;-79
2023/03/13 07:31:18;;;;;;;14.60;2.83;;;11.90;99.90;;;;;;5076683;27;20043;-78
2023/03/13 07:33:44;;;;;;;10.77;2.80;;;11.20;99.90;;;;;;5109645;27;20409;-79
2023/03/13 07:36:12;;;;;;;13.60;2.72;;;11.90;99.90;;;;;;5092547;27;20043;-79
2023/03/13 07:38:38;;;;;;;8.93;3.30;;;11.90;99.90;;;;;;5093302;27;20054;-79
2023/03/13 07:41:04;;;;;;;11.85;2.65;;;11.90;99.90;;;;;;5109285;27;20035;-81
2023/03/13 07:43:30;;;;;;;15.52;3.08;;;11.90;99.90;;;;;;5076628;27;20046;-79
2023/03/13 07:46:01;;;;;;;10.88;3.03;;;11.90;99.90;;;;;;5109079;27;20051;-80
2023/03/13 07:48:30;;;;;;;9.15;2.38;;;11.90;99.90;;;;;;5092948;27;20526;-81
2023/03/13 07:50:56;;;;;;;11.60;3.25;;;11.80;99.90;;;;;;5109280;27;20039;-79
2023/03/13 07:53:22;;;;;;;11.48;2.78;;;11.80;99.90;;;;;;5092374;27;20475;-79
2023/03/13 07:55:58;;;;;;;12.68;3.15;;;11.80;99.90;;;;;;5109797;27;20035;-79
2023/03/13 07:58:28;;;;;;;11.07;2.40;;;11.70;99.90;;;;;;5108894;27;20050;-79
2023/03/13 08:00:55;;;;;;;10.32;3.28;;;11.70;99.90;;;;;;5110530;27;20047;-79
2023/03/13 08:03:22;;;;;;;8.20;2.22;;;11.60;99.90;;;;;;5109324;27;20118;-79
2023/03/13 08:05:57;;;;;;;11.82;2.20;;;11.70;99.90;;;;;;5092111;27;20163;-79
2023/03/13 08:08:23;;;;;;;9.65;2.42;;;11.70;99.90;;;;;;5092987;27;20406;-79
2023/03/13 08:10:49;;;;;;;11.10;2.67;;;11.70;99.90;;;;;;5074818;27;20122;-80
2023/03/13 08:13:14;;;;;;;8.63;2.53;;;11.70;99.90;;;;;;5059133;27;20088;-79
2023/03/13 08:15:40;;;;;;;9.10;2.35;;;11.70;99.90;;;;;;5108197;27;20082;-79
2023/03/13 08:18:06;;;;;;;7.47;2.15;;;11.70;99.90;;;;;;5109056;27;20047;-80
2023/03/13 08:20:31;;;;;;;6.72;1.73;;;11.80;99.90;;;;;;5091554;27;20408;-80
2023/03/13 08:22:57;;;;;;;8.77;1.63;;;11.80;99.90;;;;;;5075122;27;20506;-79
2023/03/13 08:25:23;;;;;;;11.88;2.70;;;11.90;99.90;;;;;;5092156;27;20140;-79
2023/03/13 08:27:48;;;;;;;8.25;1.38;;;11.90;99.90;;;;;;5108038;27;20395;-80
2023/03/13 08:30:14;;;;;;;9.90;1.35;;;12.00;99.90;;;;;;5092674;27;20058;-80
2023/03/13 08:32:40;;;;;;;10.48;1.92;;;12.10;99.90;;;;;;5108254;27;20606;-80
2023/03/13 08:35:06;;;;;;;4.18;1.33;;;12.20;99.90;;;;;;5092079;27;20447;-80
2023/03/13 08:37:32;;;;;;;7.97;1.30;;;12.20;99.90;;;;;;5091199;27;20058;-80
2023/03/13 08:39:58;;;;;;;6.82;1.42;;;12.30;99.90;;;;;;5074641;27;20031;-79
2023/03/13 08:42:25;;;;;;;8.02;1.58;;;12.40;99.90;;;;;;5091640;27;20043;-79
2023/03/13 08:44:50;;;;;;;6.68;1.27;;;12.50;99.90;;;;;;5091060;27;20043;-80
2023/03/13 08:47:17;;;;;;;6.82;1.27;;;12.60;99.90;;;;;;5075106;27;20515;-80
2023/03/13 08:49:43;;;;;;;9.98;1.38;;;12.70;99.90;;;;;;5073625;27;20179;-80
2023/03/13 08:52:09;;;;;;;12.70;1.60;;;12.90;99.90;;;;;;5108763;27;20046;-79
2023/03/13 08:54:35;;;;;;;7.40;1.35;;;13.00;99.90;;;;;;5090393;27;20122;-80
2023/03/13 08:57:01;;;;;;;4.72;0.90;;;13.10;99.90;;;;;;5074137;27;20043;-80
2023/03/13 08:59:26;;;;;;;5.63;0.93;;;13.10;99.90;;;;;;5090901;27;20092;-81
2023/03/13 09:01:52;;;;;;;5.95;1.33;;;13.20;99.90;;;;;;5073847;27;20087;-80
2023/03/13 09:04:19;;;;;;;3.78;1.15;;;13.30;99.90;;;;;;5091514;27;20047;-80
2023/03/13 09:06:44;;;;;;;6.82;1.23;;;13.30;99.90;;;;;;5103494;28;20138;-81
2023/03/13 09:09:11;;;;;;;8.93;1.30;;;13.30;99.90;;;;;;5088446;28;20079;-80
2023/03/13 09:11:38;;;;;;;5.97;0.95;;;13.30;99.90;;;;;;5103746;28;20067;-80
2023/03/13 09:14:04;;;;;;;5.82;1.13;;;13.30;99.90;;;;;;5087780;28;20375;-80
2023/03/13 09:16:32;;;;;;;6.47;0.93;;;13.30;99.90;;;;;;5104725;28;20410;-80
2023/03/13 09:18:58;;;;;;;6.53;0.98;;;13.30;99.90;;;;;;5086947;28;20048;-80
2023/03/13 09:21:27;;;;;;;5.32;0.90;;;13.90;99.90;;;;;;5087765;28;20096;-80
2023/03/13 09:23:53;;;;;;;6.05;1.00;;;13.30;99.90;;;;;;5103846;28;20039;-81
2023/03/13 09:26:20;;;;;;;9.35;1.27;;;13.30;99.90;;;;;;5088278;28;20490;-80
2023/03/13 09:28:45;;;;;;;7.97;1.35;;;13.30;99.90;;;;;;5102608;28;20092;-80
2023/03/13 09:31:13;;;;;;;7.22;1.05;;;13.30;99.90;;;;;;5087562;28;20051;-80
2023/03/13 09:33:41;;;;;;;5.93;1.20;;;12.70;99.90;;;;;;5103985;28;20039;-80
2023/03/13 09:36:07;;;;;;;8.18;1.73;;;13.20;99.90;;;;;;5069582;28;20035;-79
2023/03/13 09:38:34;;;;;;;8.02;2.00;;;13.20;99.90;;;;;;5104483;28;20039;-79
2023/03/13 09:41:24;;;;;;;9.43;2.13;;;13.10;99.90;;;;;;5103519;28;20047;-80
2023/03/13 09:43:56;;;;;;;13.45;1.95;;;13.10;99.90;;;;;;5104521;28;20126;-79
2023/03/13 09:46:45;;;;;;;7.38;1.50;;;12.90;99.90;;;;;;5103522;28;20487;-80
2023/03/13 09:49:25;;;;;;;9.65;1.50;;;12.90;99.90;;;;;;5103398;28;20040;-79
2023/03/13 09:52:14;;;;;;;15.55;2.10;;;13.00;99.90;;;;;;5104224;28;20130;-79
2023/03/13 09:54:48;;;;;;;9.30;1.80;;;13.00;99.90;;;;;;5103265;28;20039;-80
2023/03/13 09:57:39;;;;;;;16.17;1.95;;;13.10;99.90;;;;;;5103522;28;20039;-80
2023/03/13 10:00:18;;;;;;;9.43;1.75;;;13.10;99.90;;;;;;5104058;28;20089;-79
2023/03/13 10:03:12;;;;;;;18.00;2.60;;;13.10;99.90;;;;;;5104590;28;20132;-80
2023/03/13 10:05:50;;;;;;;15.93;3.00;;;13.10;99.90;;;;;;5086395;28;20134;-80
2023/03/13 10:08:23;;;;;;;7.53;1.63;;;13.20;99.90;;;;;;5104009;28;20406;-79
2023/03/13 10:11:06;;;;;;;14.52;2.65;;;13.30;99.90;;;;;;5085898;28;20048;-80
2023/03/13 10:14:03;;;;;;;8.35;2.42;;;13.50;99.90;;;;;;5104311;28;20446;-80
2023/03/13 10:16:57;;;;;;;13.00;2.42;;;13.60;99.90;;;;;;5103093;28;20491;-80
2023/03/13 10:19:31;;;;;;;15.52;2.38;;;13.80;99.90;;;;;;5085867;28;20094;-80
2023/03/13 10:22:00;;;;;;;10.60;2.15;;;13.90;99.90;;;;;;5087159;28;20126;-80
2023/03/13 10:24:31;;;;;;;14.13;2.35;;;14.00;99.90;;;;;;5102493;28;20071;-80
2023/03/13 10:26:57;;;;;;;10.95;2.38;;;14.20;99.90;;;;;;5086666;28;20484;-79
2023/03/13 10:29:29;;;;;;;18.77;2.35;;;14.30;99.90;;;;;;5069546;28;20078;-81
2023/03/13 10:32:06;;;;;;;16.35;2.55;;;14.40;99.90;;;;;;5085976;28;20443;-81
2023/03/13 10:34:59;;;;;;;13.85;2.83;;;14.40;99.90;;;;;;5103995;28;20131;-81
2023/03/13 10:37:28;;;;;;;15.38;2.30;;;15.00;99.90;;;;;;5086233;28;20465;-81
2023/03/13 10:40:28;;;;;;;20.88;3.38;;;14.30;99.90;;;;;;5103832;28;20101;-80
2023/03/13 10:43:04;;;;;;;17.08;2.83;;;14.30;99.90;;;;;;5090963;28;20044;-81
2023/03/13 10:45:35;;;;;;;9.52;2.13;;;14.10;99.90;;;;;;5072633;28;20083;-80
2023/03/13 10:48:10;;;;;;;13.48;2.95;;;14.20;99.90;;;;;;5090660;28;20070;-80
2023/03/13 10:50:36;;;;;;;19.65;2.63;;;14.20;99.90;;;;;;5089809;28;20048;-80
2023/03/13 10:53:22;;;;;;;20.27;3.35;;;14.20;99.90;;;;;;5107208;28;20036;-81
2023/03/13 10:55:48;;;;;;;19.23;2.92;;;14.20;99.90;;;;;;5108234;28;20468;-78
2023/03/13 10:58:29;;;;;;;16.10;3.08;;;14.20;99.90;;;;;;5089245;28;20062;-78
2023/03/13 11:01:28;;;;;;;17.02;3.55;;;14.30;99.90;;;;;;5090009;28;20139;-78
2023/03/13 11:03:55;;;;;;;17.98;2.72;;;14.30;99.90;;;;;;5090326;28;20044;-79
2023/03/13 11:06:30;;;;;;;18.30;3.63;;;14.40;99.90;;;;;;5106531;28;20561;-79
2023/03/13 11:09:13;;;;;;;16.42;3.00;;;14.40;99.90;;;;;;5107177;28;20055;-78
2023/03/13 11:11:52;;;;;;;16.38;2.85;;;14.40;99.90;;;;;;5106632;28;20437;-78
2023/03/13 11:14:21;;;;;;;12.55;2.38;;;14.50;99.90;;;;;;5089759;28;20079;-78
2023/03/13 11:16:55;;;;;;;14.00;2.83;;;14.50;99.90;;;;;;5106806;28;20047;-79
2023/03/13 11:19:48;;;;;;;15.57;3.03;;;14.50;99.90;;;;;;5089144;28;20180;-78
2023/03/13 11:22:13;;;;;;;14.15;2.50;;;13.90;99.90;;;;;;5107106;28;20417;-80
2023/03/13 11:25:02;;;;;;;17.30;3.65;;;14.60;99.90;;;;;;5105877;28;20114;-78
2023/03/13 11:27:39;;;;;;;13.00;2.47;;;14.60;99.90;;;;;;5088676;28;20051;-78
2023/03/13 11:30:12;;;;;;;14.68;2.22;;;14.60;99.90;;;;;;5106662;28;20048;-78
2023/03/13 11:32:46;;;;;;;13.60;2.20;;;14.60;99.90;;;;;;5105541;28;20062;-79
2023/03/13 11:35:34;;;;;;;11.57;2.13;;;14.70;99.90;;;;;;5107039;28;20479;-78
2023/03/13 11:38:06;;;;;;;12.27;2.35;;;14.60;99.90;;;;;;5106252;28;20047;-78
2023/03/13 11:40:47;;;;;;;10.43;1.63;;;14.60;99.90;;;;;;5088278;28;20043;-78
2023/03/13 11:43:31;;;;;;;15.57;3.03;;;13.60;99.90;;;;;;5108056;28;20067;-78
2023/03/13 11:46:00;;;;;;;13.80;2.00;;;14.60;99.90;;;;;;5105651;28;20423;-80
2023/03/13 11:48:35;;;;;;;8.35;1.38;;;14.50;99.90;;;;;;5106315;28;20402;-80
2023/03/13 11:51:24;;;;;;;12.02;1.80;;;14.50;99.90;;;;;;5107606;28;20051;-79
2023/03/13 11:54:22;;;;;;;6.28;1.73;;;14.60;99.90;;;;;;5095050;28;20056;-79
2023/03/13 11:56:55;;;;;;;9.02;2.08;;;14.60;99.90;;;;;;5105883;28;20230;-79
2023/03/13 12:00:01;;;;;;;7.68;1.40;;;14.60;99.90;;;;;;5105839;28;20044;-79
2023/03/13 12:02:34;;;;;;;8.85;2.70;;;14.60;99.90;;;;;;5104880;28;20420;-79
2023/03/13 12:05:07;;;;;;;13.43;1.98;;;14.70;99.90;;;;;;5107517;28;20482;-80
2023/03/13 12:07:44;;;;;;;14.35;2.38;;;14.80;99.90;;;;;;5105152;28;20056;-79
2023/03/13 12:10:32;;;;;;;10.70;1.85;;;14.50;99.90;;;;;;5105593;28;20375;-77
2023/03/13 12:13:01;;;;;;;10.90;1.75;;;14.90;99.90;;;;;;5106299;28;20043;-81
2023/03/13 12:15:35;;;;;;;19.55;2.67;;;14.80;99.90;;;;;;5088198;28;20383;-79
2023/03/13 12:18:42;;;;;;;16.48;3.72;;;14.80;99.90;;;;;;5105565;28;20466;-79
2023/03/13 12:21:42;;;;;;;13.90;1.75;;;14.80;99.90;;;;;;5010916;28;20052;-78
2023/03/13 12:24:31;;;;;;;16.08;2.50;;;14.70;99.90;;;;;;5042703;28;20408;-78
2023/03/13 12:27:02;;;;;;;15.10;2.92;;;14.70;99.90;;;;;;5095384;28;20134;-78
2023/03/13 12:29:39;;;;;;;16.08;3.00;;;14.60;99.90;;;;;;5105847;28;20143;-78
2023/03/13 12:32:27;;;;;;;17.98;2.75;;;14.70;99.90;;;;;;5105351;28;20395;-78
2023/03/13 12:35:11;;;;;;;17.67;2.47;;;14.90;99.90;;;;;;5088643;28;20475;-78
2023/03/13 12:38:03;;;;;;;16.80;2.85;;;15.10;99.90;;;;;;5104698;28;20086;-78
2023/03/13 12:40:50;;;;;;;16.08;2.75;;;15.10;99.90;;;;;;5104072;28;20055;-78
2023/03/13 12:43:21;;;;;;;16.35;3.03;;;15.20;99.90;;;;;;5088441;28;20195;-79
2023/03/13 12:45:55;;;;;;;17.55;3.05;;;15.20;99.90;;;;;;5087487;28;20051;-79
2023/03/13 12:48:44;;;;;;;16.92;3.10;;;15.10;99.90;;;;;;5105075;28;20058;-79
2023/03/13 12:51:48;;;;;;;12.48;2.00;;;15.10;99.90;;;;;;5105875;28;20071;-79
2023/03/13 12:54:45;;;;;;;13.02;2.78;;;15.20;99.90;;;;;;5104405;28;20775;-79
2023/03/13 12:57:47;;;;;;;11.18;2.75;;;15.30;99.90;;;;;;5104499;28;20043;-78